Flight Track Log - Related Links

Times and Time Zones

All times are in EDT time to prevent confusion due to time zone crossing. See the N724AE flight status page for this flight to view local times or setup timezone preferences in your user account.

Time Position Orientation Groundspeed Altitude Reporting Facility
EDT Latitude Longitude Course Direction KTS MPH feet Rate Location/Type
Tue 07:24:32 PM 32.3441 -95.4460 256° West  Level FlightAware Approximate
Tue 07:25:32 PM 32.3167 -95.5202 46° Northeast  Level FlightAware Approximate
Tue 07:26:09 PM 32.3325 -95.5006 257° West 219 252 5,000  Level Fort Worth Center
Tue 07:29:09 PM 32.2800 -95.7744 257° West 302 348 11,800 1,750 Climbing Fort Worth Center
Tue 07:30:09 PM 32.2583 -95.8853 255° West 340 391 12,000 100 Climbing Fort Worth Center
Tue 07:31:09 PM 32.2325 -96.0011 275° West 361 415 12,000  Level Fort Worth Center
Tue 07:32:09 PM 32.2422 -96.1214 304° West 361 415 12,000  Level Fort Worth Center
Tue 07:32:40 PM 32.2675 -96.1653 296° West 379 436 12,000 -333 Level FAA TRACON SMA TRACON (SMA)
Tue 07:33:21 PM 32.2997 -96.2422 296° West 377 434 11,600 -750 Descending FAA TRACON SMA TRACON (SMA)
Tue 07:34:00 PM 32.3250 -96.3025 297° West 336 387 11,000 -360 Descending FAA TRACON SMA TRACON (SMA)
Tue 07:35:01 PM 32.3619 -96.3897 297° West 293 337 11,000 -118 Level FAA TRACON SMA TRACON (SMA)
Tue 07:35:42 PM 32.3883 -96.4503 314° West 299 344 10,800 -963 Descending FAA TRACON SMA TRACON (SMA)
Tue 07:36:22 PM 32.4267 -96.4972 319° Northwest 285 328 9,700 -1,823 Descending FAA TRACON SMA TRACON (SMA)
Tue 07:37:01 PM 32.4664 -96.5386 321° Northwest 272 313 8,400 -1,769 Descending FAA TRACON SMA TRACON (SMA)
Tue 07:37:40 PM 32.5017 -96.5728 317° Northwest 266 306 7,400 -1,500 Descending FAA TRACON SMA TRACON (SMA)
Tue 07:38:21 PM 32.5381 -96.6131 320° Northwest 259 298 6,400 -1,463 Descending FAA TRACON SMA TRACON (SMA)
Tue 07:39:02 PM 32.5781 -96.6525 319° Northwest 268 308 5,400 -1,037 Descending FAA TRACON SMA TRACON (SMA)
Tue 07:39:42 PM 32.6122 -96.6872 319° Northwest 264 304 5,000 -300 Descending FAA TRACON SMA TRACON (SMA)
Tue 07:40:22 PM 32.6503 -96.7261 324° Northwest 263 303 5,000  Level FAA TRACON SMA TRACON (SMA)
Tue 07:41:03 PM 32.6919 -96.7625 317° Northwest 268 308 5,000  Level FAA TRACON SMA TRACON (SMA)
Tue 07:41:43 PM 32.7250 -96.7986 317° Northwest 266 306 5,000  Level FAA TRACON SMA TRACON (SMA)

Login

Don't have an account? Register now (free) for customized features, flight alerts, and more!